sensor_id;sensor_type;location;lat;lon;timestamp;temperature;humidity
36186;DHT22;22228;53.222;7.446;2023-02-15T00:02:10;0.70;99.90
36186;DHT22;22228;53.222;7.446;2023-02-15T00:04:30;0.70;99.90
36186;DHT22;22228;53.222;7.446;2023-02-15T00:06:59;0.70;99.90
36186;DHT22;22228;53.222;7.446;2023-02-15T00:09:19;0.70;99.90
36186;DHT22;22228;53.222;7.446;2023-02-15T00:11:40;0.70;99.90
36186;DHT22;22228;53.222;7.446;2023-02-15T00:14:01;0.60;99.90
36186;DHT22;22228;53.222;7.446;2023-02-15T00:16:22;0.60;99.90
36186;DHT22;22228;53.222;7.446;2023-02-15T00:18:42;0.50;99.90
36186;DHT22;22228;53.222;7.446;2023-02-15T00:20:56;0.50;99.90
36186;DHT22;22228;53.222;7.446;2023-02-15T00:23:18;0.50;99.90
36186;DHT22;22228;53.222;7.446;2023-02-15T00:25:38;0.50;99.90
36186;DHT22;22228;53.222;7.446;2023-02-15T00:27:59;0.50;99.90
36186;DHT22;22228;53.222;7.446;2023-02-15T00:30:20;0.50;99.90
36186;DHT22;22228;53.222;7.446;2023-02-15T00:32:40;0.40;99.90
36186;DHT22;22228;53.222;7.446;2023-02-15T00:35:01;0.40;99.90
36186;DHT22;22228;53.222;7.446;2023-02-15T00:37:21;0.40;99.90
36186;DHT22;22228;53.222;7.446;2023-02-15T00:39:43;0.40;99.90
36186;DHT22;22228;53.222;7.446;2023-02-15T00:42:04;0.40;99.90
36186;DHT22;22228;53.222;7.446;2023-02-15T00:44:24;0.30;99.90
36186;DHT22;22228;53.222;7.446;2023-02-15T00:46:45;0.30;99.90
36186;DHT22;22228;53.222;7.446;2023-02-15T00:49:05;0.30;99.90
36186;DHT22;22228;53.222;7.446;2023-02-15T00:51:26;0.30;99.90
36186;DHT22;22228;53.222;7.446;2023-02-15T00:53:46;0.30;99.90
36186;DHT22;22228;53.222;7.446;2023-02-15T00:56:08;0.30;99.90
36186;DHT22;22228;53.222;7.446;2023-02-15T00:58:29;0.20;99.90
36186;DHT22;22228;53.222;7.446;2023-02-15T01:00:49;0.20;99.90
36186;DHT22;22228;53.222;7.446;2023-02-15T01:03:11;0.20;99.90
36186;DHT22;22228;53.222;7.446;2023-02-15T01:05:32;0.20;99.90
36186;DHT22;22228;53.222;7.446;2023-02-15T01:07:52;0.10;99.90
36186;DHT22;22228;53.222;7.446;2023-02-15T01:10:12;0.10;99.90
36186;DHT22;22228;53.222;7.446;2023-02-15T01:12:34;0.10;99.90
36186;DHT22;22228;53.222;7.446;2023-02-15T01:14:55;0.10;99.90
36186;DHT22;22228;53.222;7.446;2023-02-15T04:01:15;-0.70;99.90
36186;DHT22;22228;53.222;7.446;2023-02-15T04:03:59;-0.70;99.90
36186;DHT22;22228;53.222;7.446;2023-02-15T04:06:20;-0.80;99.90
36186;DHT22;22228;53.222;7.446;2023-02-15T04:08:41;-0.90;99.90
36186;DHT22;22228;53.222;7.446;2023-02-15T04:11:19;-0.90;99.90
36186;DHT22;22228;53.222;7.446;2023-02-15T04:13:39;-0.90;99.90
36186;DHT22;22228;53.222;7.446;2023-02-15T04:16:00;-1.00;99.90
36186;DHT22;22228;53.222;7.446;2023-02-15T04:18:24;-1.00;99.90
36186;DHT22;22228;53.222;7.446;2023-02-15T04:21:02;-1.10;99.90
36186;DHT22;22228;53.222;7.446;2023-02-15T04:23:40;-1.10;99.90
36186;DHT22;22228;53.222;7.446;2023-02-15T04:26:18;-1.10;99.90
36186;DHT22;22228;53.222;7.446;2023-02-15T04:28:38;-1.20;99.90
36186;DHT22;22228;53.222;7.446;2023-02-15T04:30:59;-1.20;99.90
36186;DHT22;22228;53.222;7.446;2023-02-15T04:33:19;-1.20;99.90
36186;DHT22;22228;53.222;7.446;2023-02-15T04:35:43;-1.20;99.90
36186;DHT22;22228;53.222;7.446;2023-02-15T04:38:05;-1.20;99.90
36186;DHT22;22228;53.222;7.446;2023-02-15T04:40:25;-1.20;99.90
36186;DHT22;22228;53.222;7.446;2023-02-15T04:42:47;-1.30;99.90
36186;DHT22;22228;53.222;7.446;2023-02-15T04:45:08;-1.30;99.90
36186;DHT22;22228;53.222;7.446;2023-02-15T04:47:28;-1.30;99.90
36186;DHT22;22228;53.222;7.446;2023-02-15T04:49:49;-1.30;99.90
36186;DHT22;22228;53.222;7.446;2023-02-15T04:52:11;-1.30;99.90
36186;DHT22;22228;53.222;7.446;2023-02-15T04:54:32;-1.40;99.90
36186;DHT22;22228;53.222;7.446;2023-02-15T04:56:52;-1.40;99.90
36186;DHT22;22228;53.222;7.446;2023-02-15T04:59:13;-1.40;99.90
36186;DHT22;22228;53.222;7.446;2023-02-15T05:01:34;-1.40;99.90
36186;DHT22;22228;53.222;7.446;2023-02-15T05:03:55;-1.40;99.90
36186;DHT22;22228;53.222;7.446;2023-02-15T05:06:15;-1.50;99.90
36186;DHT22;22228;53.222;7.446;2023-02-15T05:08:37;-1.50;99.90
36186;DHT22;22228;53.222;7.446;2023-02-15T05:10:58;-1.50;99.90
36186;DHT22;22228;53.222;7.446;2023-02-15T05:13:18;-1.50;99.90
36186;DHT22;22228;53.222;7.446;2023-02-15T05:15:38;-1.50;99.90
36186;DHT22;22228;53.222;7.446;2023-02-15T05:17:59;-1.50;99.90
36186;DHT22;22228;53.222;7.446;2023-02-15T05:20:22;-1.50;99.90
36186;DHT22;22228;53.222;7.446;2023-02-15T05:22:43;-1.50;99.90
36186;DHT22;22228;53.222;7.446;2023-02-15T05:25:05;-1.50;99.90
36186;DHT22;22228;53.222;7.446;2023-02-15T05:27:43;-1.50;99.90
36186;DHT22;22228;53.222;7.446;2023-02-15T05:30:21;-1.50;99.90
36186;DHT22;22228;53.222;7.446;2023-02-15T05:32:41;-1.40;99.90
36186;DHT22;22228;53.222;7.446;2023-02-15T05:35:02;-1.40;99.90
36186;DHT22;22228;53.222;7.446;2023-02-15T05:37:22;-1.50;99.90
36186;DHT22;22228;53.222;7.446;2023-02-15T05:39:43;-1.50;99.90
36186;DHT22;22228;53.222;7.446;2023-02-15T05:42:05;-1.50;99.90
36186;DHT22;22228;53.222;7.446;2023-02-15T05:44:26;-1.50;99.90
36186;DHT22;22228;53.222;7.446;2023-02-15T05:46:46;-1.50;99.90
36186;DHT22;22228;53.222;7.446;2023-02-15T05:49:06;-1.50;99.90
36186;DHT22;22228;53.222;7.446;2023-02-15T05:51:27;-1.50;99.90
36186;DHT22;22228;53.222;7.446;2023-02-15T05:53:47;-1.50;99.90
36186;DHT22;22228;53.222;7.446;2023-02-15T05:56:09;-1.50;99.90
36186;DHT22;22228;53.222;7.446;2023-02-15T05:58:33;-1.50;99.90
36186;DHT22;22228;53.222;7.446;2023-02-15T06:00:53;-1.50;99.90
36186;DHT22;22228;53.222;7.446;2023-02-15T06:03:14;-1.60;99.90
36186;DHT22;22228;53.222;7.446;2023-02-15T06:05:34;-1.60;99.90
36186;DHT22;22228;53.222;7.446;2023-02-15T06:07:55;-1.60;99.90
36186;DHT22;22228;53.222;7.446;2023-02-15T06:10:15;-1.60;99.90
36186;DHT22;22228;53.222;7.446;2023-02-15T06:12:35;-1.60;99.90
36186;DHT22;22228;53.222;7.446;2023-02-15T06:14:57;-1.70;99.90
36186;DHT22;22228;53.222;7.446;2023-02-15T06:17:18;-1.70;99.90
36186;DHT22;22228;53.222;7.446;2023-02-15T06:19:38;-1.70;99.90
36186;DHT22;22228;53.222;7.446;2023-02-15T06:21:59;-1.70;99.90
36186;DHT22;22228;53.222;7.446;2023-02-15T06:24:20;-1.70;99.90
36186;DHT22;22228;53.222;7.446;2023-02-15T06:26:40;-1.70;99.90
36186;DHT22;22228;53.222;7.446;2023-02-15T06:29:00;-1.70;99.90
36186;DHT22;22228;53.222;7.446;2023-02-15T06:31:22;-1.70;99.90
36186;DHT22;22228;53.222;7.446;2023-02-15T06:33:43;-1.70;99.90
36186;DHT22;22228;53.222;7.446;2023-02-15T06:36:03;-1.70;99.90
36186;DHT22;22228;53.222;7.446;2023-02-15T06:38:24;-1.70;99.90
36186;DHT22;22228;53.222;7.446;2023-02-15T06:40:44;-1.70;99.90
36186;DHT22;22228;53.222;7.446;2023-02-15T06:43:05;-1.60;99.90
36186;DHT22;22228;53.222;7.446;2023-02-15T06:45:26;-1.60;99.90
36186;DHT22;22228;53.222;7.446;2023-02-15T06:47:47;-1.60;99.90
36186;DHT22;22228;53.222;7.446;2023-02-15T06:50:09;-1.60;99.90
36186;DHT22;22228;53.222;7.446;2023-02-15T06:52:30;-1.60;99.90
36186;DHT22;22228;53.222;7.446;2023-02-15T06:54:51;-1.70;99.90
36186;DHT22;22228;53.222;7.446;2023-02-15T06:57:12;-1.60;99.90
36186;DHT22;22228;53.222;7.446;2023-02-15T06:59:32;-1.60;99.90
36186;DHT22;22228;53.222;7.446;2023-02-15T07:01:53;-1.60;99.90
36186;DHT22;22228;53.222;7.446;2023-02-15T07:04:15;-1.50;99.90
36186;DHT22;22228;53.222;7.446;2023-02-15T07:06:36;-1.40;99.90
36186;DHT22;22228;53.222;7.446;2023-02-15T07:08:57;-1.30;99.90
36186;DHT22;22228;53.222;7.446;2023-02-15T07:11:17;-1.30;99.90
36186;DHT22;22228;53.222;7.446;2023-02-15T07:13:55;-1.30;99.90
36186;DHT22;22228;53.222;7.446;2023-02-15T07:16:16;-1.20;99.90
36186;DHT22;22228;53.222;7.446;2023-02-15T07:18:37;-1.20;99.90
36186;DHT22;22228;53.222;7.446;2023-02-15T07:20:59;-1.20;99.90
36186;DHT22;22228;53.222;7.446;2023-02-15T07:23:19;-1.10;99.90
36186;DHT22;22228;53.222;7.446;2023-02-15T07:25:40;-1.10;99.90
36186;DHT22;22228;53.222;7.446;2023-02-15T07:28:02;-1.00;99.90
36186;DHT22;22228;53.222;7.446;2023-02-15T07:30:23;-1.00;99.90
36186;DHT22;22228;53.222;7.446;2023-02-15T07:32:43;-0.90;99.90
36186;DHT22;22228;53.222;7.446;2023-02-15T07:35:21;-0.90;99.90
36186;DHT22;22228;53.222;7.446;2023-02-15T07:37:43;-0.80;99.90
36186;DHT22;22228;53.222;7.446;2023-02-15T07:40:05;-0.70;99.90
36186;DHT22;22228;53.222;7.446;2023-02-15T07:42:25;-0.70;99.90
36186;DHT22;22228;53.222;7.446;2023-02-15T07:44:46;-0.60;99.90
36186;DHT22;22228;53.222;7.446;2023-02-15T07:47:07;-0.50;99.90
36186;DHT22;22228;53.222;7.446;2023-02-15T07:49:27;-0.40;99.90
36186;DHT22;22228;53.222;7.446;2023-02-15T07:51:48;-0.40;99.90
36186;DHT22;22228;53.222;7.446;2023-02-15T07:54:25;-0.30;99.90
36186;DHT22;22228;53.222;7.446;2023-02-15T07:56:45;-0.20;99.90
36186;DHT22;22228;53.222;7.446;2023-02-15T07:59:39;-0.10;99.90
36186;DHT22;22228;53.222;7.446;2023-02-15T08:02:08;-0.10;99.90
36186;DHT22;22228;53.222;7.446;2023-02-15T08:04:29;0.00;99.90
36186;DHT22;22228;53.222;7.446;2023-02-15T08:06:52;0.00;99.90
36186;DHT22;22228;53.222;7.446;2023-02-15T08:09:13;0.10;99.90
36186;DHT22;22228;53.222;7.446;2023-02-15T08:11:36;0.10;99.90
36186;DHT22;22228;53.222;7.446;2023-02-15T08:14:00;0.20;99.90
36186;DHT22;22228;53.222;7.446;2023-02-15T08:16:23;0.20;99.90
36186;DHT22;22228;53.222;7.446;2023-02-15T08:18:44;0.30;99.90
36186;DHT22;22228;53.222;7.446;2023-02-15T08:21:05;0.40;99.90
36186;DHT22;22228;53.222;7.446;2023-02-15T08:23:25;0.60;99.90
36186;DHT22;22228;53.222;7.446;2023-02-15T08:25:49;0.60;99.90
36186;DHT22;22228;53.222;7.446;2023-02-15T08:28:11;0.70;99.90
36186;DHT22;22228;53.222;7.446;2023-02-15T08:30:31;0.80;99.90
36186;DHT22;22228;53.222;7.446;2023-02-15T08:32:51;0.90;99.90
36186;DHT22;22228;53.222;7.446;2023-02-15T08:37:49;1.10;99.90
36186;DHT22;22228;53.222;7.446;2023-02-15T08:40:10;1.10;99.90
36186;DHT22;22228;53.222;7.446;2023-02-15T08:42:33;1.20;99.90
36186;DHT22;22228;53.222;7.446;2023-02-15T08:44:55;1.30;99.90
36186;DHT22;22228;53.222;7.446;2023-02-15T08:47:15;1.40;99.90
36186;DHT22;22228;53.222;7.446;2023-02-15T08:49:35;1.50;99.90
36186;DHT22;22228;53.222;7.446;2023-02-15T08:51:56;1.60;99.90
36186;DHT22;22228;53.222;7.446;2023-02-15T08:54:19;1.60;99.90
36186;DHT22;22228;53.222;7.446;2023-02-15T08:56:44;1.70;99.90
36186;DHT22;22228;53.222;7.446;2023-02-15T08:59:06;1.80;99.90
36186;DHT22;22228;53.222;7.446;2023-02-15T09:01:30;1.90;99.90
36186;DHT22;22228;53.222;7.446;2023-02-15T09:03:51;2.00;99.90
36186;DHT22;22228;53.222;7.446;2023-02-15T09:06:15;2.20;99.90
36186;DHT22;22228;53.222;7.446;2023-02-15T09:08:36;2.30;99.90
36186;DHT22;22228;53.222;7.446;2023-02-15T09:11:06;2.40;99.90
36186;DHT22;22228;53.222;7.446;2023-02-15T09:13:29;2.60;99.90
36186;DHT22;22228;53.222;7.446;2023-02-15T09:15:49;2.70;99.90
36186;DHT22;22228;53.222;7.446;2023-02-15T09:18:12;2.80;99.90
36186;DHT22;22228;53.222;7.446;2023-02-15T09:20:36;3.00;99.90
36186;DHT22;22228;53.222;7.446;2023-02-15T09:22:56;3.10;99.90
36186;DHT22;22228;53.222;7.446;2023-02-15T09:25:17;3.20;99.90
36186;DHT22;22228;53.222;7.446;2023-02-15T09:27:39;3.30;99.90
36186;DHT22;22228;53.222;7.446;2023-02-15T09:30:00;3.50;99.90
36186;DHT22;22228;53.222;7.446;2023-02-15T09:32:21;3.60;99.90
36186;DHT22;22228;53.222;7.446;2023-02-15T09:34:43;3.70;99.90
36186;DHT22;22228;53.222;7.446;2023-02-15T09:37:05;3.70;99.90
36186;DHT22;22228;53.222;7.446;2023-02-15T09:39:26;3.80;99.90
36186;DHT22;22228;53.222;7.446;2023-02-15T09:42:24;3.90;99.90
36186;DHT22;22228;53.222;7.446;2023-02-15T09:45:03;4.00;99.90
36186;DHT22;22228;53.222;7.446;2023-02-15T09:47:42;4.20;99.90
36186;DHT22;22228;53.222;7.446;2023-02-15T09:50:13;4.30;99.90
36186;DHT22;22228;53.222;7.446;2023-02-15T09:52:52;4.40;99.90
36186;DHT22;22228;53.222;7.446;2023-02-15T09:55:28;4.60;99.90
36186;DHT22;22228;53.222;7.446;2023-02-15T09:58:00;4.70;99.90
36186;DHT22;22228;53.222;7.446;2023-02-15T10:00:27;4.80;99.90
36186;DHT22;22228;53.222;7.446;2023-02-15T10:03:07;4.90;99.90
36186;DHT22;22228;53.222;7.446;2023-02-15T10:05:38;5.00;99.90
36186;DHT22;22228;53.222;7.446;2023-02-15T10:08:27;5.10;99.90
36186;DHT22;22228;53.222;7.446;2023-02-15T10:10:59;5.10;99.90
36186;DHT22;22228;53.222;7.446;2023-02-15T10:13:45;5.20;99.90
36186;DHT22;22228;53.222;7.446;2023-02-15T10:16:15;5.20;99.90
36186;DHT22;22228;53.222;7.446;2023-02-15T10:18:48;5.20;99.90
36186;DHT22;22228;53.222;7.446;2023-02-15T10:21:20;5.30;99.90
36186;DHT22;22228;53.222;7.446;2023-02-15T10:23:53;5.40;99.90
36186;DHT22;22228;53.222;7.446;2023-02-15T10:26:18;5.40;99.90
36186;DHT22;22228;53.222;7.446;2023-02-15T10:28:45;5.50;99.90
36186;DHT22;22228;53.222;7.446;2023-02-15T10:31:13;5.50;99.90
36186;DHT22;22228;53.222;7.446;2023-02-15T10:33:42;5.70;99.90
36186;DHT22;22228;53.222;7.446;2023-02-15T10:36:15;5.70;99.90
36186;DHT22;22228;53.222;7.446;2023-02-15T10:38:41;5.80;99.90
36186;DHT22;22228;53.222;7.446;2023-02-15T10:41:17;5.90;99.90
36186;DHT22;22228;53.222;7.446;2023-02-15T10:43:54;6.00;99.90
36186;DHT22;22228;53.222;7.446;2023-02-15T10:46:28;6.10;99.90
36186;DHT22;22228;53.222;7.446;2023-02-15T10:49:09;6.20;99.90
36186;DHT22;22228;53.222;7.446;2023-02-15T10:51:42;6.20;99.90
36186;DHT22;22228;53.222;7.446;2023-02-15T10:54:18;6.40;99.90
36186;DHT22;22228;53.222;7.446;2023-02-15T10:56:47;6.50;99.90
36186;DHT22;22228;53.222;7.446;2023-02-15T10:59:32;6.60;99.90
36186;DHT22;22228;53.222;7.446;2023-02-15T11:01:59;6.70;99.90
36186;DHT22;22228;53.222;7.446;2023-02-15T11:04:41;6.90;99.90
36186;DHT22;22228;53.222;7.446;2023-02-15T11:07:11;7.00;99.90
36186;DHT22;22228;53.222;7.446;2023-02-15T11:09:38;7.10;99.90
36186;DHT22;22228;53.222;7.446;2023-02-15T11:12:00;7.20;99.90
36186;DHT22;22228;53.222;7.446;2023-02-15T11:14:27;7.30;99.90
36186;DHT22;22228;53.222;7.446;2023-02-15T11:16:56;7.40;99.90
36186;DHT22;22228;53.222;7.446;2023-02-15T11:19:20;7.50;99.90
36186;DHT22;22228;53.222;7.446;2023-02-15T11:21:45;7.60;99.90
36186;DHT22;22228;53.222;7.446;2023-02-15T11:24:12;7.70;99.90
36186;DHT22;22228;53.222;7.446;2023-02-15T11:26:36;7.80;99.90
36186;DHT22;22228;53.222;7.446;2023-02-15T11:28:59;7.80;99.90
36186;DHT22;22228;53.222;7.446;2023-02-15T11:31:23;7.90;99.90
36186;DHT22;22228;53.222;7.446;2023-02-15T11:33:47;8.00;99.90
36186;DHT22;22228;53.222;7.446;2023-02-15T11:36:14;8.10;99.90
36186;DHT22;22228;53.222;7.446;2023-02-15T11:38:36;8.10;99.90
36186;DHT22;22228;53.222;7.446;2023-02-15T11:41:03;8.30;99.90
36186;DHT22;22228;53.222;7.446;2023-02-15T11:43:29;8.30;99.90
36186;DHT22;22228;53.222;7.446;2023-02-15T11:45:51;8.30;99.90
36186;DHT22;22228;53.222;7.446;2023-02-15T11:48:13;8.30;99.90
36186;DHT22;22228;53.222;7.446;2023-02-15T11:50:34;8.30;99.90
36186;DHT22;22228;53.222;7.446;2023-02-15T11:52:58;8.40;99.90
36186;DHT22;22228;53.222;7.446;2023-02-15T11:55:22;8.40;99.90
36186;DHT22;22228;53.222;7.446;2023-02-15T11:57:50;8.50;99.90
36186;DHT22;22228;53.222;7.446;2023-02-15T12:00:16;8.60;99.90
36186;DHT22;22228;53.222;7.446;2023-02-15T12:02:45;8.70;99.90
36186;DHT22;22228;53.222;7.446;2023-02-15T12:05:10;8.80;99.90
36186;DHT22;22228;53.222;7.446;2023-02-15T12:07:35;8.90;99.90
36186;DHT22;22228;53.222;7.446;2023-02-15T12:10:02;8.90;99.90
36186;DHT22;22228;53.222;7.446;2023-02-15T12:12:28;9.00;99.90
36186;DHT22;22228;53.222;7.446;2023-02-15T12:14:51;9.10;99.90
36186;DHT22;22228;53.222;7.446;2023-02-15T12:17:13;9.20;99.90
36186;DHT22;22228;53.222;7.446;2023-02-15T12:19:38;9.30;99.90
36186;DHT22;22228;53.222;7.446;2023-02-15T12:22:02;9.40;99.90
36186;DHT22;22228;53.222;7.446;2023-02-15T12:24:26;9.50;99.90
36186;DHT22;22228;53.222;7.446;2023-02-15T12:26:57;9.50;99.90
36186;DHT22;22228;53.222;7.446;2023-02-15T12:29:22;9.50;99.90
36186;DHT22;22228;53.222;7.446;2023-02-15T12:31:47;9.60;99.90
36186;DHT22;22228;53.222;7.446;2023-02-15T12:34:12;9.60;99.90
36186;DHT22;22228;53.222;7.446;2023-02-15T12:36:41;9.60;99.90
36186;DHT22;22228;53.222;7.446;2023-02-15T12:39:17;9.60;99.90
36186;DHT22;22228;53.222;7.446;2023-02-15T12:41:44;9.80;99.90
36186;DHT22;22228;53.222;7.446;2023-02-15T12:44:15;9.80;99.90
36186;DHT22;22228;53.222;7.446;2023-02-15T12:46:37;9.90;99.90
36186;DHT22;22228;53.222;7.446;2023-02-15T12:49:16;9.90;99.90
36186;DHT22;22228;53.222;7.446;2023-02-15T12:51:46;9.90;99.90
36186;DHT22;22228;53.222;7.446;2023-02-15T12:54:16;10.00;99.90
36186;DHT22;22228;53.222;7.446;2023-02-15T12:56:36;10.10;99.90
36186;DHT22;22228;53.222;7.446;2023-02-15T12:59:04;10.10;99.90
36186;DHT22;22228;53.222;7.446;2023-02-15T13:01:25;10.20;99.90
36186;DHT22;22228;53.222;7.446;2023-02-15T13:03:58;10.20;99.90
36186;DHT22;22228;53.222;7.446;2023-02-15T13:06:21;10.10;99.90
36186;DHT22;22228;53.222;7.446;2023-02-15T13:08:51;10.20;99.90
36186;DHT22;22228;53.222;7.446;2023-02-15T13:11:13;10.10;99.90
36186;DHT22;22228;53.222;7.446;2023-02-15T13:13:52;10.20;99.90
36186;DHT22;22228;53.222;7.446;2023-02-15T13:16:13;10.20;99.90
36186;DHT22;22228;53.222;7.446;2023-02-15T13:18:37;10.20;99.90
36186;DHT22;22228;53.222;7.446;2023-02-15T13:21:04;10.30;99.90
36186;DHT22;22228;53.222;7.446;2023-02-15T13:23:29;10.40;99.90
36186;DHT22;22228;53.222;7.446;2023-02-15T13:25:50;10.40;99.90
36186;DHT22;22228;53.222;7.446;2023-02-15T13:28:13;10.50;99.90
36186;DHT22;22228;53.222;7.446;2023-02-15T13:30:38;10.50;99.90
36186;DHT22;22228;53.222;7.446;2023-02-15T13:33:02;10.60;99.90
36186;DHT22;22228;53.222;7.446;2023-02-15T13:35:23;10.60;99.90
36186;DHT22;22228;53.222;7.446;2023-02-15T13:38:09;10.70;99.90
36186;DHT22;22228;53.222;7.446;2023-02-15T13:40:37;10.70;99.90
36186;DHT22;22228;53.222;7.446;2023-02-15T13:43:02;10.70;99.90
36186;DHT22;22228;53.222;7.446;2023-02-15T13:45:33;10.70;99.90
36186;DHT22;22228;53.222;7.446;2023-02-15T13:48:01;10.80;99.90
36186;DHT22;22228;53.222;7.446;2023-02-15T13:50:36;10.80;99.90
36186;DHT22;22228;53.222;7.446;2023-02-15T13:53:09;10.80;99.90
36186;DHT22;22228;53.222;7.446;2023-02-15T13:55:40;10.80;99.90
36186;DHT22;22228;53.222;7.446;2023-02-15T13:58:27;10.80;99.90
36186;DHT22;22228;53.222;7.446;2023-02-15T14:00:56;10.80;99.90
36186;DHT22;22228;53.222;7.446;2023-02-15T14:06:37;10.90;99.90
36186;DHT22;22228;53.222;7.446;2023-02-15T14:09:11;10.90;99.90
36186;DHT22;22228;53.222;7.446;2023-02-15T14:11:41;11.00;99.90
36186;DHT22;22228;53.222;7.446;2023-02-15T14:14:27;11.00;99.90
36186;DHT22;22228;53.222;7.446;2023-02-15T14:16:55;11.00;99.90
36186;DHT22;22228;53.222;7.446;2023-02-15T14:19:26;11.00;99.90
36186;DHT22;22228;53.222;7.446;2023-02-15T14:21:53;11.00;99.90
36186;DHT22;22228;53.222;7.446;2023-02-15T14:24:31;11.00;99.90
36186;DHT22;22228;53.222;7.446;2023-02-15T14:27:02;11.00;99.90
36186;DHT22;22228;53.222;7.446;2023-02-15T14:29:32;11.00;99.90
36186;DHT22;22228;53.222;7.446;2023-02-15T14:31:58;11.00;99.90
36186;DHT22;22228;53.222;7.446;2023-02-15T14:34:23;11.10;99.90
36186;DHT22;22228;53.222;7.446;2023-02-15T14:36:44;11.10;99.90
36186;DHT22;22228;53.222;7.446;2023-02-15T14:39:14;11.10;99.90
36186;DHT22;22228;53.222;7.446;2023-02-15T14:42:03;11.10;99.90
36186;DHT22;22228;53.222;7.446;2023-02-15T14:44:32;11.10;99.90
36186;DHT22;22228;53.222;7.446;2023-02-15T14:47:00;11.10;99.90
36186;DHT22;22228;53.222;7.446;2023-02-15T14:49:26;11.10;99.90
36186;DHT22;22228;53.222;7.446;2023-02-15T14:51:55;11.10;99.90
36186;DHT22;22228;53.222;7.446;2023-02-15T14:57:24;10.90;99.90
36186;DHT22;22228;53.222;7.446;2023-02-15T14:59:46;10.90;99.90
36186;DHT22;22228;53.222;7.446;2023-02-15T15:02:14;10.90;99.90
36186;DHT22;22228;53.222;7.446;2023-02-15T15:04:38;10.80;99.90
36186;DHT22;22228;53.222;7.446;2023-02-15T15:07:03;10.80;99.90
36186;DHT22;22228;53.222;7.446;2023-02-15T15:09:29;10.70;99.90
36186;DHT22;22228;53.222;7.446;2023-02-15T15:11:50;10.70;99.90
36186;DHT22;22228;53.222;7.446;2023-02-15T15:14:36;10.60;99.90
36186;DHT22;22228;53.222;7.446;2023-02-15T15:16:58;10.60;99.90
36186;DHT22;22228;53.222;7.446;2023-02-15T15:22:28;10.40;99.90
36186;DHT22;22228;53.222;7.446;2023-02-15T15:24:53;10.40;99.90
36186;DHT22;22228;53.222;7.446;2023-02-15T15:27:43;10.40;99.90
36186;DHT22;22228;53.222;7.446;2023-02-15T15:33:57;10.20;99.90
36186;DHT22;22228;53.222;7.446;2023-02-15T15:42:01;9.90;99.90
36186;DHT22;22228;53.222;7.446;2023-02-15T15:47:49;9.80;99.90
36186;DHT22;22228;53.222;7.446;2023-02-15T15:50:16;9.80;99.90
36186;DHT22;22228;53.222;7.446;2023-02-15T15:52:37;9.60;99.90
36186;DHT22;22228;53.222;7.446;2023-02-15T15:55:14;9.50;99.90
36186;DHT22;22228;53.222;7.446;2023-02-15T15:57:38;9.40;99.90
36186;DHT22;22228;53.222;7.446;2023-02-15T15:59:59;9.30;99.90
36186;DHT22;22228;53.222;7.446;2023-02-15T16:02:19;9.20;99.90
36186;DHT22;22228;53.222;7.446;2023-02-15T16:04:41;9.10;99.90
36186;DHT22;22228;53.222;7.446;2023-02-15T16:07:20;9.00;99.90
36186;DHT22;22228;53.222;7.446;2023-02-15T16:09:54;8.90;99.90
36186;DHT22;22228;53.222;7.446;2023-02-15T16:12:15;8.70;99.90
36186;DHT22;22228;53.222;7.446;2023-02-15T16:14:38;8.60;99.90
36186;DHT22;22228;53.222;7.446;2023-02-15T16:17:00;8.50;99.90
36186;DHT22;22228;53.222;7.446;2023-02-15T16:19:25;8.40;99.90
36186;DHT22;22228;53.222;7.446;2023-02-15T16:21:48;8.40;99.90
36186;DHT22;22228;53.222;7.446;2023-02-15T16:24:21;8.30;99.90
36186;DHT22;22228;53.222;7.446;2023-02-15T16:26:55;8.20;99.90
36186;DHT22;22228;53.222;7.446;2023-02-15T16:29:27;8.10;99.90
36186;DHT22;22228;53.222;7.446;2023-02-15T16:31:58;8.10;99.90
36186;DHT22;22228;53.222;7.446;2023-02-15T16:34:19;8.00;99.90
36186;DHT22;22228;53.222;7.446;2023-02-15T16:36:39;7.90;99.90
36186;DHT22;22228;53.222;7.446;2023-02-15T16:39:12;7.80;99.90
36186;DHT22;22228;53.222;7.446;2023-02-15T16:41:37;7.70;99.90
36186;DHT22;22228;53.222;7.446;2023-02-15T16:44:03;7.60;99.90
36186;DHT22;22228;53.222;7.446;2023-02-15T16:46:26;7.50;99.90
36186;DHT22;22228;53.222;7.446;2023-02-15T16:48:49;7.50;99.90
36186;DHT22;22228;53.222;7.446;2023-02-15T16:51:18;7.40;99.90
36186;DHT22;22228;53.222;7.446;2023-02-15T16:53:40;7.30;99.90
36186;DHT22;22228;53.222;7.446;2023-02-15T16:56:07;7.30;99.90
36186;DHT22;22228;53.222;7.446;2023-02-15T16:58:31;7.20;99.90
36186;DHT22;22228;53.222;7.446;2023-02-15T17:00:57;7.20;99.90
36186;DHT22;22228;53.222;7.446;2023-02-15T17:03:23;7.10;99.90
36186;DHT22;22228;53.222;7.446;2023-02-15T17:05:46;7.00;99.90
36186;DHT22;22228;53.222;7.446;2023-02-15T17:08:15;7.00;99.90
36186;DHT22;22228;53.222;7.446;2023-02-15T17:10:38;6.90;99.90
36186;DHT22;22228;53.222;7.446;2023-02-15T17:13:03;6.90;99.90
36186;DHT22;22228;53.222;7.446;2023-02-15T17:15:26;6.80;99.90
36186;DHT22;22228;53.222;7.446;2023-02-15T17:17:46;6.80;99.90
36186;DHT22;22228;53.222;7.446;2023-02-15T17:20:13;6.70;99.90
36186;DHT22;22228;53.222;7.446;2023-02-15T17:22:34;6.60;99.90
36186;DHT22;22228;53.222;7.446;2023-02-15T17:25:01;6.60;99.90
36186;DHT22;22228;53.222;7.446;2023-02-15T17:27:25;6.50;99.90
36186;DHT22;22228;53.222;7.446;2023-02-15T17:29:50;6.50;99.90
36186;DHT22;22228;53.222;7.446;2023-02-15T17:32:17;6.40;99.90
36186;DHT22;22228;53.222;7.446;2023-02-15T17:34:56;6.30;99.90
36186;DHT22;22228;53.222;7.446;2023-02-15T17:37:27;6.20;99.90
36186;DHT22;22228;53.222;7.446;2023-02-15T17:39:48;6.20;99.90
36186;DHT22;22228;53.222;7.446;2023-02-15T17:42:09;6.10;99.90
36186;DHT22;22228;53.222;7.446;2023-02-15T17:44:29;6.00;99.90
36186;DHT22;22228;53.222;7.446;2023-02-15T17:46:51;6.00;99.90
36186;DHT22;22228;53.222;7.446;2023-02-15T17:49:18;5.90;99.90
36186;DHT22;22228;53.222;7.446;2023-02-15T17:51:42;5.90;99.90
36186;DHT22;22228;53.222;7.446;2023-02-15T17:54:03;5.80;99.90
36186;DHT22;22228;53.222;7.446;2023-02-15T17:56:41;5.70;99.90
36186;DHT22;22228;53.222;7.446;2023-02-15T17:59:02;5.70;99.90
36186;DHT22;22228;53.222;7.446;2023-02-15T18:01:25;5.70;99.90
36186;DHT22;22228;53.222;7.446;2023-02-15T18:04:07;5.60;99.90
36186;DHT22;22228;53.222;7.446;2023-02-15T18:06:46;5.60;99.90
36186;DHT22;22228;53.222;7.446;2023-02-15T18:09:25;5.50;99.90
36186;DHT22;22228;53.222;7.446;2023-02-15T18:12:14;5.50;99.90
36186;DHT22;22228;53.222;7.446;2023-02-15T18:14:38;5.40;99.90
36186;DHT22;22228;53.222;7.446;2023-02-15T18:16:58;5.40;99.90
36186;DHT22;22228;53.222;7.446;2023-02-15T18:19:22;5.40;99.90
36186;DHT22;22228;53.222;7.446;2023-02-15T18:21:43;5.40;99.90
36186;DHT22;22228;53.222;7.446;2023-02-15T18:24:03;5.40;99.90
36186;DHT22;22228;53.222;7.446;2023-02-15T18:26:25;5.40;99.90
36186;DHT22;22228;53.222;7.446;2023-02-15T18:28:46;5.40;99.90
36186;DHT22;22228;53.222;7.446;2023-02-15T18:31:06;5.40;99.90
36186;DHT22;22228;53.222;7.446;2023-02-15T18:33:33;5.40;99.90
36186;DHT22;22228;53.222;7.446;2023-02-15T18:35:55;5.40;99.90
36186;DHT22;22228;53.222;7.446;2023-02-15T18:38:16;5.30;99.90